Time;durP1;ratioP1;P1;durP2;ratioP2;P2;SDS_P1;SDS_P2;PMS_P1;PMS_P2;Temp;Humidity;BMP_temperature;BMP_pressure;BME280_temperature;BME280_humidity;BME280_pressure;Samples;Min_cycle;Max_cycle;Signal;HPM_P1;HPM_P2
2022/08/29 00:00:38;;;;;;;8.23;4.77;;;;;;;;;;5087883;28;20055;-64
2022/08/29 00:03:05;;;;;;;12.17;5.00;;;;;;;;;;5074298;28;20016;-64
2022/08/29 00:05:33;;;;;;;17.77;6.43;;;;;;;;;;5073163;28;20532;-64
2022/08/29 00:08:00;;;;;;;15.03;5.63;;;;;;;;;;5090219;28;20031;-64
2022/08/29 00:10:25;;;;;;;15.53;5.13;;;;;;;;;;5087369;28;20098;-64
2022/08/29 00:12:51;;;;;;;13.57;5.30;;;;;;;;;;5076516;28;20115;-64
2022/08/29 00:15:17;;;;;;;11.77;5.40;;;;;;;;;;5090244;28;20016;-64
2022/08/29 00:17:43;;;;;;;14.27;6.03;;;;;;;;;;5082558;28;20498;-64
2022/08/29 00:20:10;;;;;;;19.93;6.13;;;;;;;;;;5086346;28;20020;-64
2022/08/29 00:22:35;;;;;;;17.30;6.30;;;;;;;;;;5089531;28;20024;-64
2022/08/29 00:25:03;;;;;;;11.57;5.60;;;;;;;;;;5088046;28;20081;-64
2022/08/29 00:27:29;;;;;;;16.87;5.83;;;;;;;;;;5091212;28;20434;-64
2022/08/29 00:29:54;;;;;;;16.60;6.33;;;;;;;;;;5089326;28;20024;-64
2022/08/29 00:32:20;;;;;;;18.67;6.07;;;;;;;;;;5083776;28;20077;-64
2022/08/29 00:34:45;;;;;;;12.17;5.60;;;;;;;;;;5083290;28;20016;-64
2022/08/29 00:37:10;;;;;;;13.57;5.87;;;;;;;;;;5075045;28;20030;-64
2022/08/29 00:39:35;;;;;;;14.10;5.83;;;;;;;;;;5088721;28;20032;-64
2022/08/29 00:42:01;;;;;;;12.00;6.03;;;;;;;;;;5087040;28;20066;-64
2022/08/29 00:44:26;;;;;;;16.57;5.90;;;;;;;;;;5088550;28;20080;-64
2022/08/29 00:46:53;;;;;;;17.30;5.67;;;;;;;;;;5088570;28;20032;-64
2022/08/29 00:49:24;;;;;;;16.90;6.00;;;;;;;;;;5093024;28;20028;-64
2022/08/29 00:51:50;;;;;;;14.35;6.07;;;;;;;;;;5086948;28;20020;-64
2022/08/29 00:54:15;;;;;;;15.30;5.87;;;;;;;;;;5088772;28;20080;-64
2022/08/29 00:56:41;;;;;;;11.30;5.47;;;;;;;;;;5086972;28;20016;-64
2022/08/29 00:59:18;;;;;;;17.73;5.53;;;;;;;;;;5087017;28;20020;-64
2022/08/29 01:01:44;;;;;;;13.27;6.00;;;;;;;;;;5087860;28;20031;-65
2022/08/29 01:04:09;;;;;;;11.80;5.40;;;;;;;;;;5088019;28;20028;-65
2022/08/29 01:06:36;;;;;;;14.07;5.87;;;;;;;;;;5089366;28;20039;-65
2022/08/29 01:09:02;;;;;;;17.63;5.80;;;;;;;;;;5090226;28;20031;-64
2022/08/29 01:14:13;;;;;;;16.33;6.83;;;;;;;;;;5091583;28;20100;-64
2022/08/29 01:16:38;;;;;;;17.47;5.73;;;;;;;;;;5090291;28;20035;-64
2022/08/29 01:19:11;;;;;;;12.83;6.23;;;;;;;;;;5091772;28;20016;-64
2022/08/29 01:21:40;;;;;;;16.30;6.27;;;;;;;;;;5092801;28;20031;-64
2022/08/29 01:24:12;;;;;;;13.57;6.13;;;;;;;;;;5092909;28;20024;-64
2022/08/29 01:26:38;;;;;;;11.43;6.00;;;;;;;;;;5089223;28;20028;-64
2022/08/29 01:29:03;;;;;;;16.90;6.03;;;;;;;;;;5082139;28;20541;-64
2022/08/29 01:31:36;;;;;;;13.23;6.50;;;;;;;;;;5091400;28;20012;-64
2022/08/29 01:34:02;;;;;;;14.23;6.43;;;;;;;;;;5088164;28;20115;-64
2022/08/29 01:36:36;;;;;;;12.97;7.13;;;;;;;;;;5090744;28;20111;-64
2022/08/29 01:39:01;;;;;;;21.03;7.50;;;;;;;;;;5096242;28;20468;-64
2022/08/29 01:41:27;;;;;;;14.13;6.60;;;;;;;;;;5088607;28;20035;-64
2022/08/29 01:43:53;;;;;;;14.90;7.10;;;;;;;;;;5092759;28;20022;-64
2022/08/29 01:46:20;;;;;;;20.10;7.10;;;;;;;;;;5087759;28;20016;-64
2022/08/29 01:48:45;;;;;;;17.07;7.37;;;;;;;;;;5093100;28;20445;-64
2022/08/29 01:51:11;;;;;;;15.00;6.90;;;;;;;;;;5090824;28;20051;-64
2022/08/29 01:53:36;;;;;;;18.73;7.40;;;;;;;;;;5093078;28;20538;-64
2022/08/29 01:56:13;;;;;;;16.77;7.20;;;;;;;;;;5087653;28;20368;-64
2022/08/29 01:58:38;;;;;;;19.80;7.40;;;;;;;;;;5092196;28;20024;-64
2022/08/29 02:01:04;;;;;;;20.87;9.23;;;;;;;;;;5087699;28;20073;-64
2022/08/29 02:03:29;;;;;;;17.93;7.30;;;;;;;;;;5093051;28;20016;-64
2022/08/29 02:05:58;;;;;;;15.40;7.17;;;;;;;;;;5091141;28;20026;-64
2022/08/29 02:08:23;;;;;;;17.30;7.50;;;;;;;;;;5090434;28;20099;-64
2022/08/29 02:10:49;;;;;;;20.00;7.60;;;;;;;;;;5090882;28;20108;-64
2022/08/29 02:13:14;;;;;;;23.77;7.77;;;;;;;;;;5091406;28;20035;-64
2022/08/29 02:15:39;;;;;;;26.70;8.63;;;;;;;;;;5086216;28;20525;-64
2022/08/29 02:18:04;;;;;;;19.27;8.33;;;;;;;;;;5088786;28;20484;-64
2022/08/29 02:20:31;;;;;;;14.60;7.80;;;;;;;;;;5090972;28;20020;-64
2022/08/29 02:22:56;;;;;;;19.77;7.57;;;;;;;;;;5093194;28;20042;-64
2022/08/29 02:28:05;;;;;;;16.63;7.87;;;;;;;;;;5091090;28;20038;-64
2022/08/29 02:30:31;;;;;;;15.27;7.47;;;;;;;;;;5087560;28;20036;-64
2022/08/29 02:32:56;;;;;;;14.47;7.47;;;;;;;;;;5092478;28;20073;-65
2022/08/29 02:35:22;;;;;;;21.80;8.07;;;;;;;;;;5089849;28;20024;-64
2022/08/29 02:37:47;;;;;;;16.93;7.90;;;;;;;;;;5087767;28;20115;-64
2022/08/29 02:40:12;;;;;;;16.60;7.60;;;;;;;;;;5086868;28;20189;-64
2022/08/29 02:42:38;;;;;;;15.03;6.83;;;;;;;;;;5089566;28;20062;-64
2022/08/29 02:45:04;;;;;;;17.63;7.83;;;;;;;;;;5077071;28;20036;-64
2022/08/29 02:47:29;;;;;;;18.03;7.23;;;;;;;;;;5089961;28;20089;-65
2022/08/29 02:49:54;;;;;;;14.43;7.90;;;;;;;;;;5093145;28;20035;-64
2022/08/29 02:52:20;;;;;;;20.00;8.23;;;;;;;;;;5089739;28;20069;-64
2022/08/29 02:54:45;;;;;;;12.93;8.13;;;;;;;;;;5088437;28;20031;-65
2022/08/29 02:57:10;;;;;;;21.70;8.03;;;;;;;;;;5092585;28;20054;-65
2022/08/29 02:59:36;;;;;;;18.63;8.80;;;;;;;;;;5091523;28;20062;-64
2022/08/29 03:02:01;;;;;;;21.20;8.50;;;;;;;;;;5087944;28;20019;-64
2022/08/29 03:04:26;;;;;;;16.53;8.23;;;;;;;;;;5078310;28;20028;-64
2022/08/29 03:06:52;;;;;;;20.13;8.30;;;;;;;;;;5090952;28;20020;-64
2022/08/29 03:09:17;;;;;;;16.93;7.93;;;;;;;;;;5090022;28;20028;-64
2022/08/29 03:11:42;;;;;;;15.93;7.27;;;;;;;;;;5086386;28;20503;-64
2022/08/29 03:14:07;;;;;;;15.50;7.50;;;;;;;;;;5071109;28;20116;-64
2022/08/29 03:16:33;;;;;;;13.77;6.43;;;;;;;;;;5088779;28;20103;-64
2022/08/29 03:18:58;;;;;;;17.43;6.97;;;;;;;;;;5089184;28;20016;-64
2022/08/29 03:21:25;;;;;;;14.97;7.03;;;;;;;;;;5091074;28;20059;-64
2022/08/29 03:23:51;;;;;;;14.07;6.50;;;;;;;;;;5086948;28;20016;-65
2022/08/29 03:26:16;;;;;;;15.83;7.20;;;;;;;;;;5084467;28;20468;-64
2022/08/29 03:28:42;;;;;;;12.73;7.00;;;;;;;;;;5090613;28;20125;-65
2022/08/29 03:31:07;;;;;;;13.73;6.97;;;;;;;;;;5088193;28;20456;-64
2022/08/29 03:33:32;;;;;;;19.63;7.17;;;;;;;;;;5089270;28;20016;-64
2022/08/29 03:35:58;;;;;;;16.87;7.20;;;;;;;;;;5086108;28;20035;-65
2022/08/29 03:38:23;;;;;;;14.93;7.07;;;;;;;;;;5089175;28;20016;-64
2022/08/29 03:40:48;;;;;;;13.10;6.33;;;;;;;;;;5085639;28;20039;-64
2022/08/29 03:43:14;;;;;;;19.83;7.87;;;;;;;;;;5086944;28;20095;-64
2022/08/29 03:45:39;;;;;;;15.10;6.80;;;;;;;;;;5086846;28;20107;-65
2022/08/29 03:48:05;;;;;;;17.93;7.17;;;;;;;;;;5089155;28;20535;-64
2022/08/29 03:50:30;;;;;;;19.37;7.90;;;;;;;;;;5089817;28;20019;-68
2022/08/29 03:52:55;;;;;;;16.37;7.10;;;;;;;;;;5087942;28;20099;-64
2022/08/29 03:55:20;;;;;;;16.20;6.80;;;;;;;;;;5088392;28;20060;-65
2022/08/29 03:57:46;;;;;;;16.30;7.17;;;;;;;;;;5087545;28;20016;-64
2022/08/29 04:00:15;;;;;;;15.97;6.90;;;;;;;;;;5088208;28;20032;-64
2022/08/29 04:02:41;;;;;;;15.87;6.67;;;;;;;;;;5084730;28;20031;-65
2022/08/29 04:05:06;;;;;;;18.53;6.37;;;;;;;;;;5086909;28;20992;-65
2022/08/29 04:07:38;;;;;;;17.97;6.93;;;;;;;;;;5089121;28;20107;-65
2022/08/29 04:10:04;;;;;;;13.50;6.63;;;;;;;;;;5088620;28;20028;-65
2022/08/29 04:12:30;;;;;;;17.73;7.20;;;;;;;;;;5086407;28;20460;-65
2022/08/29 04:14:55;;;;;;;16.33;6.63;;;;;;;;;;5089002;28;20020;-65
2022/08/29 04:17:20;;;;;;;16.10;6.70;;;;;;;;;;5084293;28;20032;-65
2022/08/29 04:19:45;;;;;;;16.07;6.47;;;;;;;;;;5086018;28;20085;-64
2022/08/29 04:22:12;;;;;;;20.73;7.33;;;;;;;;;;5082466;28;20030;-64
2022/08/29 04:24:37;;;;;;;11.90;6.87;;;;;;;;;;5088958;28;20043;-65
2022/08/29 04:27:03;;;;;;;22.30;7.40;;;;;;;;;;5082354;28;20032;-64
2022/08/29 04:29:28;;;;;;;18.57;7.33;;;;;;;;;;5087317;28;20058;-64
2022/08/29 04:31:53;;;;;;;13.23;6.13;;;;;;;;;;5083359;28;20024;-64
2022/08/29 04:34:20;;;;;;;20.03;7.07;;;;;;;;;;5088325;28;20020;-65
2022/08/29 04:36:46;;;;;;;18.83;6.87;;;;;;;;;;5084278;28;20070;-65
2022/08/29 04:39:11;;;;;;;16.83;7.00;;;;;;;;;;5084247;28;20449;-65
2022/08/29 04:41:37;;;;;;;14.30;6.50;;;;;;;;;;5085442;28;20078;-64
2022/08/29 04:44:02;;;;;;;15.93;6.43;;;;;;;;;;5092427;28;20028;-64
2022/08/29 04:46:28;;;;;;;15.43;7.07;;;;;;;;;;5095038;28;20031;-64
2022/08/29 04:48:53;;;;;;;14.67;6.47;;;;;;;;;;5091949;28;20020;-64
2022/08/29 04:51:19;;;;;;;15.50;6.47;;;;;;;;;;5090785;28;20145;-64
2022/08/29 04:53:45;;;;;;;19.83;7.03;;;;;;;;;;5087428;28;20028;-64
2022/08/29 04:56:11;;;;;;;12.93;6.67;;;;;;;;;;5091709;28;20016;-64
2022/08/29 04:58:37;;;;;;;19.23;7.63;;;;;;;;;;5090768;28;20384;-64
2022/08/29 05:01:03;;;;;;;21.17;6.60;;;;;;;;;;5075528;28;20106;-64
2022/08/29 05:03:29;;;;;;;14.47;6.50;;;;;;;;;;5086729;28;20390;-64
2022/08/29 05:06:01;;;;;;;13.17;6.30;;;;;;;;;;5090863;28;20066;-65
2022/08/29 05:08:27;;;;;;;14.83;6.10;;;;;;;;;;5090640;28;20038;-64
2022/08/29 05:10:53;;;;;;;12.47;6.13;;;;;;;;;;5089366;28;20044;-65
2022/08/29 05:13:19;;;;;;;15.47;6.37;;;;;;;;;;5085135;28;20024;-64
2022/08/29 05:15:44;;;;;;;18.43;6.37;;;;;;;;;;5088331;28;20471;-64
2022/08/29 05:18:11;;;;;;;14.30;6.43;;;;;;;;;;5087298;28;20028;-64
2022/08/29 05:20:40;;;;;;;15.43;6.13;;;;;;;;;;5086712;28;20751;-64
2022/08/29 05:23:05;;;;;;;16.03;5.90;;;;;;;;;;5086630;28;20016;-64
2022/08/29 05:25:30;;;;;;;16.47;6.60;;;;;;;;;;5085560;28;20141;-64
2022/08/29 05:27:56;;;;;;;12.30;5.93;;;;;;;;;;5090937;28;20062;-64
2022/08/29 05:30:22;;;;;;;16.03;6.00;;;;;;;;;;5091219;28;20016;-64
2022/08/29 05:32:47;;;;;;;17.23;6.77;;;;;;;;;;5090737;28;20085;-65
2022/08/29 05:35:12;;;;;;;16.63;6.67;;;;;;;;;;5087857;28;20017;-64
2022/08/29 05:37:37;;;;;;;12.53;5.47;;;;;;;;;;5084392;28;20438;-64
2022/08/29 05:40:03;;;;;;;12.77;6.10;;;;;;;;;;5086095;28;20438;-65
2022/08/29 05:42:29;;;;;;;16.37;6.07;;;;;;;;;;5088552;28;20031;-65
2022/08/29 05:44:54;;;;;;;14.90;5.70;;;;;;;;;;5085641;28;20031;-65
2022/08/29 05:47:20;;;;;;;13.87;5.90;;;;;;;;;;5089362;28;20088;-65
2022/08/29 05:49:46;;;;;;;11.93;5.33;;;;;;;;;;5086453;28;20024;-65
2022/08/29 05:52:12;;;;;;;12.70;5.80;;;;;;;;;;5087327;28;20563;-65
2022/08/29 05:54:38;;;;;;;13.63;5.70;;;;;;;;;;5091871;28;20107;-65
2022/08/29 05:57:05;;;;;;;15.00;6.20;;;;;;;;;;5090085;28;20463;-65
2022/08/29 05:59:30;;;;;;;13.90;5.55;;;;;;;;;;5091506;28;20024;-65
2022/08/29 06:01:56;;;;;;;15.02;5.45;;;;;;;;;;5091986;28;20046;-65
2022/08/29 06:04:21;;;;;;;13.38;5.95;;;;;;;;;;5073539;28;20065;-65
2022/08/29 06:06:46;;;;;;;15.43;5.78;;;;;;;;;;5090862;28;20042;-65
2022/08/29 06:09:15;;;;;;;18.13;6.15;;;;;;;;;;5091641;28;20031;-65
2022/08/29 06:11:40;;;;;;;17.00;6.10;;;;;;;;;;5091181;28;20519;-65
2022/08/29 06:14:05;;;;;;;16.10;5.65;;;;;;;;;;5091117;28;20103;-65
2022/08/29 06:16:31;;;;;;;14.43;5.30;;;;;;;;;;5091677;28;20043;-65
2022/08/29 06:18:56;;;;;;;12.65;5.80;;;;;;;;;;5091679;28;20023;-65
2022/08/29 06:21:22;;;;;;;15.73;6.10;;;;;;;;;;5091232;28;20427;-65
2022/08/29 06:23:47;;;;;;;15.05;5.95;;;;;;;;;;5090512;28;20048;-65
2022/08/29 06:26:13;;;;;;;15.27;5.70;;;;;;;;;;5089921;28;20383;-65
2022/08/29 06:28:39;;;;;;;20.55;5.80;;;;;;;;;;5091185;28;20066;-65
2022/08/29 06:31:09;;;;;;;11.60;5.50;;;;;;;;;;5091303;28;20027;-65
2022/08/29 06:33:35;;;;;;;17.10;5.38;;;;;;;;;;5068151;28;20023;-65
2022/08/29 06:36:00;;;;;;;12.90;5.90;;;;;;;;;;5091250;28;20036;-65
2022/08/29 06:38:25;;;;;;;15.57;5.65;;;;;;;;;;5093247;28;20414;-65
2022/08/29 06:40:50;;;;;;;13.80;5.63;;;;;;;;;;5091107;28;20543;-66
2022/08/29 06:43:16;;;;;;;16.33;5.63;;;;;;;;;;5088558;28;20487;-65
2022/08/29 06:45:41;;;;;;;15.10;5.47;;;;;;;;;;5090945;28;20039;-65
2022/08/29 06:48:06;;;;;;;13.05;5.38;;;;;;;;;;5090694;28;20035;-65
2022/08/29 06:50:34;;;;;;;13.63;5.05;;;;;;;;;;5090599;28;20056;-65
2022/08/29 06:52:59;;;;;;;17.42;5.88;;;;;;;;;;5087955;28;20533;-65
2022/08/29 06:55:24;;;;;;;10.52;5.13;;;;;;;;;;5087027;28;20016;-65
2022/08/29 06:57:50;;;;;;;15.57;4.95;;;;;;;;;;5092019;28;20027;-65
2022/08/29 07:00:15;;;;;;;15.95;4.65;;;;;;;;;;5090960;28;20024;-65
2022/08/29 07:02:41;;;;;;;13.30;4.32;;;;;;;;;;5089564;28;20089;-65
2022/08/29 07:05:06;;;;;;;12.23;4.80;;;;;;;;;;5088293;28;20024;-65
2022/08/29 07:07:32;;;;;;;14.50;4.53;;;;;;;;;;5089296;28;20162;-65
2022/08/29 07:09:58;;;;;;;14.40;4.68;;;;;;;;;;5090813;28;20488;-65
2022/08/29 07:12:23;;;;;;;10.00;3.90;;;;;;;;;;5088806;28;20044;-65
2022/08/29 07:14:49;;;;;;;12.07;4.45;;;;;;;;;;5089744;28;20071;-65
2022/08/29 07:17:14;;;;;;;11.82;4.30;;;;;;;;;;5084967;28;20023;-65
2022/08/29 07:19:39;;;;;;;13.10;4.40;;;;;;;;;;5090573;28;20031;-65
2022/08/29 07:22:06;;;;;;;17.85;4.25;;;;;;;;;;5090745;28;20031;-65
2022/08/29 07:24:32;;;;;;;12.25;3.97;;;;;;;;;;5089315;28;20765;-65
2022/08/29 07:26:58;;;;;;;15.13;4.60;;;;;;;;;;5088615;28;20027;-66
2022/08/29 07:29:23;;;;;;;13.80;4.30;;;;;;;;;;5090235;28;20020;-65
2022/08/29 07:31:48;;;;;;;19.08;4.85;;;;;;;;;;5090675;28;20095;-65
2022/08/29 07:34:13;;;;;;;13.18;4.30;;;;;;;;;;5089630;28;20015;-65
2022/08/29 07:36:39;;;;;;;10.38;4.28;;;;;;;;;;5083928;28;20032;-65
2022/08/29 07:39:06;;;;;;;11.77;4.38;;;;;;;;;;5090107;28;20098;-65
2022/08/29 07:41:32;;;;;;;14.75;4.25;;;;;;;;;;5088039;28;20034;-65
2022/08/29 07:43:57;;;;;;;13.75;4.43;;;;;;;;;;5090077;28;20028;-65
2022/08/29 07:46:24;;;;;;;17.38;4.07;;;;;;;;;;5089114;28;20016;-65
2022/08/29 07:48:49;;;;;;;14.68;4.35;;;;;;;;;;5090323;28;20020;-65
2022/08/29 07:51:16;;;;;;;12.98;4.90;;;;;;;;;;5089014;28;20482;-65
2022/08/29 07:53:42;;;;;;;16.08;4.93;;;;;;;;;;5090241;28;20404;-65
2022/08/29 07:56:09;;;;;;;14.05;4.60;;;;;;;;;;5087051;28;20016;-66
2022/08/29 07:58:35;;;;;;;13.23;4.75;;;;;;;;;;5083155;28;20073;-65
2022/08/29 08:01:00;;;;;;;20.17;4.65;;;;;;;;;;5090002;28;20468;-65
2022/08/29 08:03:26;;;;;;;15.95;4.70;;;;;;;;;;5089649;28;20469;-65
2022/08/29 08:05:52;;;;;;;12.10;4.65;;;;;;;;;;5088063;28;20036;-65
2022/08/29 08:08:17;;;;;;;12.90;4.80;;;;;;;;;;5088840;28;20020;-65
2022/08/29 08:10:42;;;;;;;12.15;5.07;;;;;;;;;;5088554;28;20020;-65
2022/08/29 08:13:07;;;;;;;20.65;5.40;;;;;;;;;;5089983;28;20069;-65
2022/08/29 08:15:33;;;;;;;13.45;5.22;;;;;;;;;;5089362;28;20516;-65
2022/08/29 08:17:58;;;;;;;9.85;4.50;;;;;;;;;;5091143;28;20069;-65
2022/08/29 08:20:23;;;;;;;16.75;5.72;;;;;;;;;;5094099;28;20043;-65
2022/08/29 08:22:48;;;;;;;13.88;4.40;;;;;;;;;;5093523;28;20026;-65
2022/08/29 08:25:14;;;;;;;14.40;4.82;;;;;;;;;;5093059;28;20054;-65
2022/08/29 08:27:39;;;;;;;13.55;4.50;;;;;;;;;;5091653;28;20031;-65
2022/08/29 08:30:04;;;;;;;15.90;4.10;;;;;;;;;;5090828;28;20073;-65
2022/08/29 08:32:30;;;;;;;13.73;4.38;;;;;;;;;;5091049;28;20382;-65
2022/08/29 08:34:55;;;;;;;20.38;5.28;;;;;;;;;;5093212;28;20024;-65
2022/08/29 08:37:20;;;;;;;12.55;4.63;;;;;;;;;;5093324;28;20452;-65
2022/08/29 08:39:45;;;;;;;13.35;4.35;;;;;;;;;;5093405;28;20024;-65
2022/08/29 08:42:16;;;;;;;10.93;4.55;;;;;;;;;;5090563;28;20020;-65
2022/08/29 08:44:50;;;;;;;13.93;5.00;;;;;;;;;;5093066;28;20103;-65
2022/08/29 08:47:46;;;;;;;15.98;4.95;;;;;;;;;;5095531;28;20023;-65
2022/08/29 08:50:11;;;;;;;16.35;5.32;;;;;;;;;;5076965;28;20369;-65
2022/08/29 08:52:52;;;;;;;22.58;4.85;;;;;;;;;;5085354;28;20023;-65
2022/08/29 08:55:21;;;;;;;18.33;4.85;;;;;;;;;;5091776;28;20027;-65
2022/08/29 08:57:51;;;;;;;15.45;5.05;;;;;;;;;;5090317;28;20107;-65
2022/08/29 09:00:16;;;;;;;12.23;4.45;;;;;;;;;;5092832;28;20020;-65
2022/08/29 09:02:46;;;;;;;15.40;4.90;;;;;;;;;;5091487;28;20098;-65
2022/08/29 09:05:23;;;;;;;13.98;5.10;;;;;;;;;;5091642;28;20025;-64
2022/08/29 09:07:48;;;;;;;12.88;4.50;;;;;;;;;;5092917;28;20395;-65
2022/08/29 09:10:27;;;;;;;14.68;4.72;;;;;;;;;;5092418;28;20024;-65
2022/08/29 09:12:53;;;;;;;15.93;4.97;;;;;;;;;;5085472;28;20031;-65
2022/08/29 09:15:19;;;;;;;17.20;4.70;;;;;;;;;;5087936;28;20399;-65
2022/08/29 09:17:45;;;;;;;17.98;4.68;;;;;;;;;;5092767;28;20376;-65
2022/08/29 09:20:15;;;;;;;14.15;4.93;;;;;;;;;;5092962;28;20024;-65
2022/08/29 09:22:42;;;;;;;13.38;4.55;;;;;;;;;;5089657;28;20088;-65
2022/08/29 09:25:08;;;;;;;12.73;4.65;;;;;;;;;;5092994;28;20120;-65
2022/08/29 09:27:34;;;;;;;14.88;4.85;;;;;;;;;;5089815;28;20028;-65
2022/08/29 09:30:03;;;;;;;16.27;5.07;;;;;;;;;;5092508;28;20357;-65
2022/08/29 09:32:28;;;;;;;15.00;5.05;;;;;;;;;;5090910;28;20016;-65
2022/08/29 09:34:53;;;;;;;17.17;5.07;;;;;;;;;;5092893;28;20032;-65
2022/08/29 09:37:26;;;;;;;15.82;5.00;;;;;;;;;;5092554;28;20437;-65
2022/08/29 09:39:57;;;;;;;12.27;5.13;;;;;;;;;;5088665;28;20020;-64
2022/08/29 09:42:27;;;;;;;12.60;4.82;;;;;;;;;;5090388;28;20130;-65
2022/08/29 09:44:54;;;;;;;14.27;4.97;;;;;;;;;;5092377;28;20077;-65
2022/08/29 09:47:22;;;;;;;16.38;4.65;;;;;;;;;;5087376;28;20020;-65
2022/08/29 09:49:59;;;;;;;14.00;5.18;;;;;;;;;;5092388;28;20480;-65
2022/08/29 09:52:25;;;;;;;12.90;4.93;;;;;;;;;;5092134;28;20157;-65
2022/08/29 09:54:50;;;;;;;10.90;4.57;;;;;;;;;;5092600;28;20091;-65
2022/08/29 09:57:24;;;;;;;12.50;4.47;;;;;;;;;;5088560;28;20023;-65
2022/08/29 10:00:12;;;;;;;13.95;4.40;;;;;;;;;;5092347;28;20059;-64
2022/08/29 10:02:47;;;;;;;17.85;4.78;;;;;;;;;;5089039;28;20087;-65
2022/08/29 10:05:33;;;;;;;18.60;4.88;;;;;;;;;;5086287;28;20119;-65
2022/08/29 10:07:59;;;;;;;13.15;4.60;;;;;;;;;;5091755;28;20019;-65
2022/08/29 10:10:29;;;;;;;14.82;4.82;;;;;;;;;;5085784;28;20027;-65
2022/08/29 10:13:14;;;;;;;13.25;4.60;;;;;;;;;;5088158;28;20020;-65
2022/08/29 10:15:46;;;;;;;13.65;4.30;;;;;;;;;;5091000;28;20024;-66
2022/08/29 10:18:30;;;;;;;13.80;4.00;;;;;;;;;;5091236;28;20020;-65
2022/08/29 10:21:05;;;;;;;12.63;4.10;;;;;;;;;;5091493;28;20149;-64
2022/08/29 10:23:43;;;;;;;10.32;3.50;;;;;;;;;;5090191;28;20495;-65
2022/08/29 10:26:16;;;;;;;13.25;4.15;;;;;;;;;;5088999;28;20733;-65
2022/08/29 10:29:02;;;;;;;11.77;4.18;;;;;;;;;;5081440;28;20027;-65
2022/08/29 10:31:48;;;;;;;12.07;3.58;;;;;;;;;;5077590;28;20459;-65
2022/08/29 10:34:25;;;;;;;10.20;3.50;;;;;;;;;;5091536;28;20436;-65
2022/08/29 10:36:55;;;;;;;10.05;3.47;;;;;;;;;;5090968;28;20077;-65
2022/08/29 10:39:46;;;;;;;7.90;3.38;;;;;;;;;;5088590;28;20116;-65
2022/08/29 10:42:18;;;;;;;9.40;3.20;;;;;;;;;;5090517;28;20020;-66
2022/08/29 10:45:03;;;;;;;9.45;2.92;;;;;;;;;;5087931;28;20356;-65
2022/08/29 10:47:32;;;;;;;7.00;3.20;;;;;;;;;;5091388;28;20016;-65
2022/08/29 10:50:10;;;;;;;13.40;3.70;;;;;;;;;;5087906;28;20028;-65
2022/08/29 10:52:44;;;;;;;10.77;3.53;;;;;;;;;;5088530;28;20035;-65
2022/08/29 10:55:14;;;;;;;11.60;4.35;;;;;;;;;;5090752;28;20020;-65
2022/08/29 10:57:52;;;;;;;10.75;4.55;;;;;;;;;;5089240;28;20091;-65
2022/08/29 11:00:21;;;;;;;14.18;4.85;;;;;;;;;;5090096;28;20036;-65
2022/08/29 11:02:53;;;;;;;9.48;5.05;;;;;;;;;;5087325;28;20592;-64
2022/08/29 11:05:25;;;;;;;12.55;4.25;;;;;;;;;;5090521;28;20062;-65
2022/08/29 11:08:08;;;;;;;12.00;5.03;;;;;;;;;;5085928;28;20109;-65
2022/08/29 11:10:39;;;;;;;14.02;5.15;;;;;;;;;;5090722;28;20020;-65
2022/08/29 11:13:17;;;;;;;10.95;4.90;;;;;;;;;;5087737;28;20027;-65
2022/08/29 11:15:51;;;;;;;13.10;5.32;;;;;;;;;;5090699;28;20013;-65
2022/08/29 11:18:16;;;;;;;13.85;5.05;;;;;;;;;;5088864;28;20016;-65
2022/08/29 11:20:45;;;;;;;13.13;5.10;;;;;;;;;;5090711;28;20020;-65
2022/08/29 11:23:27;;;;;;;10.10;4.60;;;;;;;;;;5089885;28;20018;-65
2022/08/29 11:25:52;;;;;;;10.52;4.70;;;;;;;;;;5067656;28;20030;-65
2022/08/29 11:28:36;;;;;;;12.32;4.72;;;;;;;;;;5088612;28;20027;-65
2022/08/29 11:31:16;;;;;;;11.48;4.57;;;;;;;;;;5091623;28;20020;-65
2022/08/29 11:34:01;;;;;;;12.25;4.53;;;;;;;;;;5091821;28;20492;-65
2022/08/29 11:36:45;;;;;;;11.00;4.57;;;;;;;;;;5088736;28;20020;-65
2022/08/29 11:39:10;;;;;;;13.25;4.78;;;;;;;;;;5088103;28;20360;-65
2022/08/29 11:41:41;;;;;;;13.55;4.88;;;;;;;;;;5090806;28;20012;-65
2022/08/29 11:44:10;;;;;;;11.48;4.78;;;;;;;;;;5087157;28;20035;-65
2022/08/29 11:46:37;;;;;;;8.93;3.83;;;;;;;;;;5087716;28;20146;-65
2022/08/29 11:49:21;;;;;;;12.18;4.22;;;;;;;;;;5090101;28;20016;-65
2022/08/29 11:51:50;;;;;;;7.90;4.80;;;;;;;;;;5090120;28;21291;-65
2022/08/29 11:54:27;;;;;;;8.48;4.60;;;;;;;;;;5089895;28;20016;-65
2022/08/29 11:56:55;;;;;;;9.43;4.30;;;;;;;;;;5087688;28;20031;-65
2022/08/29 11:59:39;;;;;;;12.52;4.35;;;;;;;;;;5089757;28;20020;-65
2022/08/29 12:02:04;;;;;;;8.38;3.63;;;;;;;;;;5090097;28;20027;-65
2022/08/29 12:04:50;;;;;;;10.68;3.50;;;;;;;;;;5087544;28;20388;-65
2022/08/29 12:07:15;;;;;;;7.78;3.65;;;;;;;;;;5088056;28;20016;-65
2022/08/29 12:09:59;;;;;;;10.00;3.35;;;;;;;;;;5087116;28;20028;-65
2022/08/29 12:12:36;;;;;;;8.32;2.97;;;;;;;;;;5087667;28;20012;-65
2022/08/29 12:15:21;;;;;;;8.15;2.42;;;;;;;;;;5089346;28;20051;-65
2022/08/29 12:17:47;;;;;;;5.32;2.40;;;;;;;;;;5084573;28;20551;-66
2022/08/29 12:20:15;;;;;;;7.43;2.53;;;;;;;;;;5083653;28;20102;-65
2022/08/29 12:22:58;;;;;;;7.85;2.38;;;;;;;;;;5089025;28;20024;-65
2022/08/29 12:25:26;;;;;;;8.50;2.42;;;;;;;;;;5086891;28;20028;-65
2022/08/29 12:27:54;;;;;;;7.55;2.30;;;;;;;;;;5088012;28;20055;-66
2022/08/29 12:30:20;;;;;;;6.60;2.50;;;;;;;;;;5088831;28;20075;-66
2022/08/29 12:33:01;;;;;;;7.18;2.35;;;;;;;;;;5071768;28;20048;-65
2022/08/29 12:35:32;;;;;;;7.47;2.72;;;;;;;;;;5087736;28;20058;-65
2022/08/29 12:38:09;;;;;;;5.55;2.10;;;;;;;;;;5088684;28;20119;-65
2022/08/29 12:40:55;;;;;;;8.30;2.20;;;;;;;;;;5088001;28;20027;-65
2022/08/29 12:43:32;;;;;;;7.35;2.15;;;;;;;;;;5085813;28;22085;-65
2022/08/29 12:45:57;;;;;;;6.65;2.40;;;;;;;;;;5085012;28;20032;-65
2022/08/29 12:48:24;;;;;;;6.05;2.30;;;;;;;;;;5089352;28;20016;-65
2022/08/29 12:50:49;;;;;;;6.00;2.08;;;;;;;;;;5087404;28;20038;-65
2022/08/29 12:53:24;;;;;;;4.72;1.90;;;;;;;;;;5089533;28;20020;-65
2022/08/29 12:55:51;;;;;;;6.18;2.38;;;;;;;;;;5086408;28;20054;-66
2022/08/29 12:58:36;;;;;;;6.38;2.20;;;;;;;;;;5085697;28;20380;-65
2022/08/29 13:01:03;;;;;;;7.22;1.85;;;;;;;;;;5086843;28;20518;-65
2022/08/29 13:03:28;;;;;;;4.60;1.70;;;;;;;;;;5091115;28;20376;-65
2022/08/29 13:06:01;;;;;;;7.97;2.00;;;;;;;;;;5093060;28;20012;-66
2022/08/29 13:08:32;;;;;;;5.30;1.80;;;;;;;;;;5093287;28;20012;-66
2022/08/29 13:10:59;;;;;;;7.38;1.63;;;;;;;;;;5092110;28;20760;-65
2022/08/29 13:13:25;;;;;;;8.10;1.60;;;;;;;;;;5092581;28;20028;-65
2022/08/29 13:15:52;;;;;;;5.57;1.38;;;;;;;;;;5092891;28;20306;-65
2022/08/29 13:18:17;;;;;;;4.70;1.60;;;;;;;;;;5093282;28;20020;-65
2022/08/29 13:20:44;;;;;;;6.80;1.77;;;;;;;;;;5090666;28;20473;-65
2022/08/29 13:23:09;;;;;;;5.07;1.50;;;;;;;;;;5093165;28;20714;-65
2022/08/29 13:25:40;;;;;;;5.90;1.80;;;;;;;;;;5093244;28;20027;-65
2022/08/29 13:28:11;;;;;;;3.95;1.40;;;;;;;;;;5091044;28;20031;-65
2022/08/29 13:30:37;;;;;;;4.30;1.60;;;;;;;;;;5093175;28;20469;-66
2022/08/29 13:33:02;;;;;;;6.20;1.38;;;;;;;;;;5093622;28;20028;-65
2022/08/29 13:35:32;;;;;;;6.45;1.30;;;;;;;;;;5090794;28;20039;-65
2022/08/29 13:38:29;;;;;;;4.20;1.23;;;;;;;;;;5092345;28;20077;-65
2022/08/29 13:40:56;;;;;;;4.65;1.20;;;;;;;;;;5062392;28;20380;-66
2022/08/29 13:43:31;;;;;;;5.25;1.40;;;;;;;;;;5090734;28;20746;-65
2022/08/29 13:46:17;;;;;;;4.53;1.30;;;;;;;;;;5088238;28;20409;-65
2022/08/29 13:48:42;;;;;;;4.53;1.15;;;;;;;;;;5092190;28;20020;-65
2022/08/29 13:51:07;;;;;;;6.20;1.40;;;;;;;;;;5089216;28;20032;-65
2022/08/29 13:53:33;;;;;;;5.43;1.40;;;;;;;;;;5092317;28;20024;-66
2022/08/29 13:55:58;;;;;;;4.72;1.48;;;;;;;;;;5091459;28;20016;-65
2022/08/29 13:58:25;;;;;;;9.07;1.77;;;;;;;;;;5090981;28;20016;-65
2022/08/29 14:00:51;;;;;;;3.53;1.20;;;;;;;;;;5091865;28;20061;-65
2022/08/29 14:03:17;;;;;;;8.13;1.75;;;;;;;;;;5091831;28;20020;-65
2022/08/29 14:05:42;;;;;;;4.78;1.20;;;;;;;;;;5091811;28;20024;-66
2022/08/29 14:08:09;;;;;;;5.50;1.40;;;;;;;;;;5090872;28;20031;-65
2022/08/29 14:10:34;;;;;;;5.38;1.00;;;;;;;;;;5091804;28;20095;-66
2022/08/29 14:12:59;;;;;;;7.10;1.23;;;;;;;;;;5089791;28;20425;-66
2022/08/29 14:15:25;;;;;;;5.63;1.40;;;;;;;;;;5091878;28;20024;-66
2022/08/29 14:17:50;;;;;;;3.92;1.27;;;;;;;;;;5088594;28;20034;-66
2022/08/29 14:20:16;;;;;;;9.02;1.40;;;;;;;;;;5091910;28;20020;-66
2022/08/29 14:22:42;;;;;;;5.18;1.17;;;;;;;;;;5091973;28;20012;-65
2022/08/29 14:25:08;;;;;;;7.75;1.10;;;;;;;;;;5090700;28;20022;-65
2022/08/29 14:27:34;;;;;;;4.07;1.08;;;;;;;;;;5086785;28;20032;-65
2022/08/29 14:29:59;;;;;;;4.55;1.17;;;;;;;;;;5090898;28;20088;-65
2022/08/29 14:32:24;;;;;;;4.13;1.35;;;;;;;;;;5091622;28;20023;-66
2022/08/29 14:34:50;;;;;;;10.02;1.50;;;;;;;;;;5092117;28;20124;-66
2022/08/29 14:37:15;;;;;;;7.90;1.30;;;;;;;;;;5087929;28;20012;-66
2022/08/29 14:39:41;;;;;;;3.55;1.20;;;;;;;;;;5090906;28;20098;-66
2022/08/29 14:42:06;;;;;;;4.25;1.10;;;;;;;;;;5089262;28;20050;-66
2022/08/29 14:44:31;;;;;;;6.25;1.20;;;;;;;;;;5090441;28;20024;-66